sensor_id;sensor_type;location;lat;lon;timestamp;P1;durP1;ratioP1;P2;durP2;ratioP2
68449;SDS011;55434;39.570;2.652;2022-09-28T00:00:38;6.50;;;0.77;;
68449;SDS011;55434;39.570;2.652;2022-09-28T00:03:07;7.68;;;0.80;;
68449;SDS011;55434;39.570;2.652;2022-09-28T00:05:33;9.18;;;1.20;;
68449;SDS011;55434;39.570;2.652;2022-09-28T00:07:59;9.23;;;0.98;;
68449;SDS011;55434;39.570;2.652;2022-09-28T00:10:25;10.93;;;0.90;;
68449;SDS011;55434;39.570;2.652;2022-09-28T00:12:51;9.10;;;0.87;;
68449;SDS011;55434;39.570;2.652;2022-09-28T00:15:19;7.00;;;0.95;;
68449;SDS011;55434;39.570;2.652;2022-09-28T00:17:45;6.30;;;0.98;;
68449;SDS011;55434;39.570;2.652;2022-09-28T00:20:11;8.33;;;0.90;;
68449;SDS011;55434;39.570;2.652;2022-09-28T00:22:38;7.00;;;1.05;;
68449;SDS011;55434;39.570;2.652;2022-09-28T00:25:05;9.13;;;1.10;;
68449;SDS011;55434;39.570;2.652;2022-09-28T00:27:31;8.93;;;0.80;;
68449;SDS011;55434;39.570;2.652;2022-09-28T00:29:57;9.33;;;1.13;;
68449;SDS011;55434;39.570;2.652;2022-09-28T00:32:23;10.60;;;0.82;;
68449;SDS011;55434;39.570;2.652;2022-09-28T00:34:49;8.50;;;1.15;;
68449;SDS011;55434;39.570;2.652;2022-09-28T00:37:16;9.38;;;0.63;;
68449;SDS011;55434;39.570;2.652;2022-09-28T00:39:43;9.10;;;1.10;;
68449;SDS011;55434;39.570;2.652;2022-09-28T00:49:44;8.65;;;0.82;;
68449;SDS011;55434;39.570;2.652;2022-09-28T00:52:19;9.97;;;0.90;;
68449;SDS011;55434;39.570;2.652;2022-09-28T00:54:50;6.93;;;0.80;;
68449;SDS011;55434;39.570;2.652;2022-09-28T00:57:17;9.43;;;0.80;;
68449;SDS011;55434;39.570;2.652;2022-09-28T00:59:45;11.00;;;0.95;;
68449;SDS011;55434;39.570;2.652;2022-09-28T01:02:11;6.37;;;0.87;;
68449;SDS011;55434;39.570;2.652;2022-09-28T01:04:37;5.47;;;0.70;;
68449;SDS011;55434;39.570;2.652;2022-09-28T01:07:03;7.55;;;0.75;;
68449;SDS011;55434;39.570;2.652;2022-09-28T01:09:30;8.80;;;0.85;;
68449;SDS011;55434;39.570;2.652;2022-09-28T01:11:56;6.90;;;0.77;;
68449;SDS011;55434;39.570;2.652;2022-09-28T01:14:22;6.88;;;0.57;;
68449;SDS011;55434;39.570;2.652;2022-09-28T01:28:15;4.88;;;0.80;;
68449;SDS011;55434;39.570;2.652;2022-09-28T01:30:46;7.35;;;0.70;;
68449;SDS011;55434;39.570;2.652;2022-09-28T01:33:44;3.65;;;0.50;;
68449;SDS011;55434;39.570;2.652;2022-09-28T01:36:18;6.80;;;1.07;;
68449;SDS011;55434;39.570;2.652;2022-09-28T01:38:59;7.93;;;0.98;;
68449;SDS011;55434;39.570;2.652;2022-09-28T01:41:26;5.53;;;0.77;;
68449;SDS011;55434;39.570;2.652;2022-09-28T01:43:56;6.82;;;0.80;;
68449;SDS011;55434;39.570;2.652;2022-09-28T01:46:37;6.68;;;0.73;;
68449;SDS011;55434;39.570;2.652;2022-09-28T01:49:15;7.47;;;0.90;;
68449;SDS011;55434;39.570;2.652;2022-09-28T01:57:14;4.75;;;0.63;;
68449;SDS011;55434;39.570;2.652;2022-09-28T01:59:46;9.38;;;0.95;;
68449;SDS011;55434;39.570;2.652;2022-09-28T02:02:22;8.23;;;0.80;;
68449;SDS011;55434;39.570;2.652;2022-09-28T02:04:55;5.10;;;0.50;;
68449;SDS011;55434;39.570;2.652;2022-09-28T02:07:29;5.43;;;0.60;;
68449;SDS011;55434;39.570;2.652;2022-09-28T02:10:02;8.65;;;1.02;;
68449;SDS011;55434;39.570;2.652;2022-09-28T02:12:41;5.90;;;0.85;;
68449;SDS011;55434;39.570;2.652;2022-09-28T02:17:49;7.95;;;0.73;;
68449;SDS011;55434;39.570;2.652;2022-09-28T02:20:15;7.50;;;0.85;;
68449;SDS011;55434;39.570;2.652;2022-09-28T02:22:46;4.60;;;0.77;;
68449;SDS011;55434;39.570;2.652;2022-09-28T02:25:49;10.75;;;1.00;;
68449;SDS011;55434;39.570;2.652;2022-09-28T02:28:13;6.07;;;0.88;;
68449;SDS011;55434;39.570;2.652;2022-09-28T02:30:41;8.35;;;0.90;;
68449;SDS011;55434;39.570;2.652;2022-09-28T02:35:40;5.00;;;0.60;;
68449;SDS011;55434;39.570;2.652;2022-09-28T02:38:08;6.85;;;0.80;;
68449;SDS011;55434;39.570;2.652;2022-09-28T02:40:36;7.65;;;0.80;;
68449;SDS011;55434;39.570;2.652;2022-09-28T02:48:49;7.10;;;0.60;;
68449;SDS011;55434;39.570;2.652;2022-09-28T03:07:39;6.55;;;0.93;;
68449;SDS011;55434;39.570;2.652;2022-09-28T03:13:03;5.07;;;0.65;;
68449;SDS011;55434;39.570;2.652;2022-09-28T03:15:31;8.60;;;0.80;;
68449;SDS011;55434;39.570;2.652;2022-09-28T03:17:58;8.15;;;0.93;;
68449;SDS011;55434;39.570;2.652;2022-09-28T03:20:25;6.32;;;0.70;;
68449;SDS011;55434;39.570;2.652;2022-09-28T03:22:51;7.90;;;0.90;;
68449;SDS011;55434;39.570;2.652;2022-09-28T03:25:18;7.97;;;0.70;;
68449;SDS011;55434;39.570;2.652;2022-09-28T03:27:43;7.32;;;0.77;;
68449;SDS011;55434;39.570;2.652;2022-09-28T03:30:09;8.90;;;0.90;;
68449;SDS011;55434;39.570;2.652;2022-09-28T03:32:36;6.57;;;0.90;;
68449;SDS011;55434;39.570;2.652;2022-09-28T03:35:03;7.15;;;0.60;;
68449;SDS011;55434;39.570;2.652;2022-09-28T03:37:29;6.63;;;1.05;;
68449;SDS011;55434;39.570;2.652;2022-09-28T03:39:55;7.33;;;1.10;;
68449;SDS011;55434;39.570;2.652;2022-09-28T03:42:20;7.35;;;0.82;;
68449;SDS011;55434;39.570;2.652;2022-09-28T03:44:46;5.97;;;1.10;;
68449;SDS011;55434;39.570;2.652;2022-09-28T03:47:12;7.28;;;0.90;;
68449;SDS011;55434;39.570;2.652;2022-09-28T03:49:38;8.27;;;1.40;;
68449;SDS011;55434;39.570;2.652;2022-09-28T03:52:04;6.17;;;0.80;;
68449;SDS011;55434;39.570;2.652;2022-09-28T03:54:30;7.40;;;0.73;;
68449;SDS011;55434;39.570;2.652;2022-09-28T03:56:55;7.03;;;0.90;;
68449;SDS011;55434;39.570;2.652;2022-09-28T03:59:21;6.25;;;0.60;;
68449;SDS011;55434;39.570;2.652;2022-09-28T04:01:50;7.50;;;1.03;;
68449;SDS011;55434;39.570;2.652;2022-09-28T04:04:16;9.10;;;1.27;;
68449;SDS011;55434;39.570;2.652;2022-09-28T04:06:42;10.65;;;1.02;;
68449;SDS011;55434;39.570;2.652;2022-09-28T04:09:08;5.22;;;0.75;;
68449;SDS011;55434;39.570;2.652;2022-09-28T04:11:34;11.03;;;0.93;;
68449;SDS011;55434;39.570;2.652;2022-09-28T04:14:00;6.72;;;0.85;;
68449;SDS011;55434;39.570;2.652;2022-09-28T04:16:25;11.53;;;0.90;;
68449;SDS011;55434;39.570;2.652;2022-09-28T04:18:51;6.07;;;0.90;;
68449;SDS011;55434;39.570;2.652;2022-09-28T04:21:17;7.40;;;0.83;;
68449;SDS011;55434;39.570;2.652;2022-09-28T04:23:44;11.68;;;1.00;;
68449;SDS011;55434;39.570;2.652;2022-09-28T04:26:12;8.90;;;0.80;;
68449;SDS011;55434;39.570;2.652;2022-09-28T04:28:41;7.72;;;1.02;;
68449;SDS011;55434;39.570;2.652;2022-09-28T04:31:26;8.88;;;1.05;;
68449;SDS011;55434;39.570;2.652;2022-09-28T04:33:53;13.20;;;1.30;;
68449;SDS011;55434;39.570;2.652;2022-09-28T04:36:20;6.55;;;0.75;;
68449;SDS011;55434;39.570;2.652;2022-09-28T04:38:45;8.88;;;1.30;;
68449;SDS011;55434;39.570;2.652;2022-09-28T04:41:11;7.17;;;1.00;;
68449;SDS011;55434;39.570;2.652;2022-09-28T04:43:36;8.80;;;1.17;;
68449;SDS011;55434;39.570;2.652;2022-09-28T04:46:02;12.40;;;1.10;;
68449;SDS011;55434;39.570;2.652;2022-09-28T04:48:32;10.57;;;1.05;;
68449;SDS011;55434;39.570;2.652;2022-09-28T04:50:58;9.53;;;0.80;;
68449;SDS011;55434;39.570;2.652;2022-09-28T04:53:25;9.68;;;1.05;;
68449;SDS011;55434;39.570;2.652;2022-09-28T04:55:58;7.70;;;1.10;;
68449;SDS011;55434;39.570;2.652;2022-09-28T04:58:26;5.05;;;0.85;;
68449;SDS011;55434;39.570;2.652;2022-09-28T05:00:56;8.23;;;1.60;;
68449;SDS011;55434;39.570;2.652;2022-09-28T05:03:32;6.38;;;1.58;;
68449;SDS011;55434;39.570;2.652;2022-09-28T05:05:58;11.27;;;1.33;;
68449;SDS011;55434;39.570;2.652;2022-09-28T05:08:24;8.40;;;1.07;;
68449;SDS011;55434;39.570;2.652;2022-09-28T05:10:59;9.48;;;1.40;;
68449;SDS011;55434;39.570;2.652;2022-09-28T05:13:45;10.30;;;1.45;;
68449;SDS011;55434;39.570;2.652;2022-09-28T05:16:31;11.05;;;1.60;;
68449;SDS011;55434;39.570;2.652;2022-09-28T05:18:58;10.15;;;1.00;;
68449;SDS011;55434;39.570;2.652;2022-09-28T05:21:24;8.37;;;0.90;;
68449;SDS011;55434;39.570;2.652;2022-09-28T05:23:52;8.77;;;1.05;;
68449;SDS011;55434;39.570;2.652;2022-09-28T05:26:37;8.20;;;1.25;;
68449;SDS011;55434;39.570;2.652;2022-09-28T05:29:03;7.70;;;1.00;;
68449;SDS011;55434;39.570;2.652;2022-09-28T05:31:29;7.65;;;1.02;;
68449;SDS011;55434;39.570;2.652;2022-09-28T05:33:56;8.68;;;1.30;;
68449;SDS011;55434;39.570;2.652;2022-09-28T05:36:22;9.38;;;1.25;;
68449;SDS011;55434;39.570;2.652;2022-09-28T05:38:51;8.13;;;1.23;;
68449;SDS011;55434;39.570;2.652;2022-09-28T05:41:16;9.95;;;1.40;;
68449;SDS011;55434;39.570;2.652;2022-09-28T05:43:42;8.23;;;0.80;;
68449;SDS011;55434;39.570;2.652;2022-09-28T05:46:10;8.48;;;1.25;;
68449;SDS011;55434;39.570;2.652;2022-09-28T05:48:36;9.32;;;1.08;;
68449;SDS011;55434;39.570;2.652;2022-09-28T05:51:03;10.65;;;1.25;;
68449;SDS011;55434;39.570;2.652;2022-09-28T05:53:29;7.10;;;0.90;;
68449;SDS011;55434;39.570;2.652;2022-09-28T05:55:58;7.43;;;0.82;;
68449;SDS011;55434;39.570;2.652;2022-09-28T05:58:23;9.20;;;1.55;;
68449;SDS011;55434;39.570;2.652;2022-09-28T06:00:52;6.60;;;0.70;;
68449;SDS011;55434;39.570;2.652;2022-09-28T06:03:21;9.38;;;1.40;;
68449;SDS011;55434;39.570;2.652;2022-09-28T06:05:48;7.25;;;0.98;;
68449;SDS011;55434;39.570;2.652;2022-09-28T06:08:13;9.27;;;1.40;;
68449;SDS011;55434;39.570;2.652;2022-09-28T06:10:39;7.55;;;1.02;;
68449;SDS011;55434;39.570;2.652;2022-09-28T06:13:05;7.27;;;1.00;;
68449;SDS011;55434;39.570;2.652;2022-09-28T06:15:32;5.60;;;0.60;;
68449;SDS011;55434;39.570;2.652;2022-09-28T06:18:03;13.20;;;1.40;;
68449;SDS011;55434;39.570;2.652;2022-09-28T06:20:38;11.32;;;1.05;;
68449;SDS011;55434;39.570;2.652;2022-09-28T06:23:17;5.33;;;0.80;;
68449;SDS011;55434;39.570;2.652;2022-09-28T06:25:43;8.60;;;0.90;;
68449;SDS011;55434;39.570;2.652;2022-09-28T06:28:10;7.90;;;0.83;;
68449;SDS011;55434;39.570;2.652;2022-09-28T06:30:37;7.57;;;0.90;;
68449;SDS011;55434;39.570;2.652;2022-09-28T06:33:04;7.03;;;1.23;;
68449;SDS011;55434;39.570;2.652;2022-09-28T06:35:31;8.82;;;1.13;;
68449;SDS011;55434;39.570;2.652;2022-09-28T06:37:58;9.40;;;0.90;;
68449;SDS011;55434;39.570;2.652;2022-09-28T06:40:25;13.65;;;1.02;;
68449;SDS011;55434;39.570;2.652;2022-09-28T06:42:54;7.85;;;0.90;;
68449;SDS011;55434;39.570;2.652;2022-09-28T06:45:25;8.73;;;1.10;;
68449;SDS011;55434;39.570;2.652;2022-09-28T06:47:55;7.03;;;1.13;;
68449;SDS011;55434;39.570;2.652;2022-09-28T06:50:23;4.63;;;0.60;;
68449;SDS011;55434;39.570;2.652;2022-09-28T06:52:51;7.20;;;1.25;;
68449;SDS011;55434;39.570;2.652;2022-09-28T06:55:17;6.95;;;0.80;;
68449;SDS011;55434;39.570;2.652;2022-09-28T06:57:43;7.82;;;0.63;;
68449;SDS011;55434;39.570;2.652;2022-09-28T07:00:09;7.90;;;1.17;;
68449;SDS011;55434;39.570;2.652;2022-09-28T07:02:35;8.55;;;1.10;;
68449;SDS011;55434;39.570;2.652;2022-09-28T07:05:01;5.70;;;0.70;;
68449;SDS011;55434;39.570;2.652;2022-09-28T07:07:27;7.55;;;0.82;;
68449;SDS011;55434;39.570;2.652;2022-09-28T07:09:53;8.83;;;1.10;;
68449;SDS011;55434;39.570;2.652;2022-09-28T07:12:19;4.15;;;0.43;;
68449;SDS011;55434;39.570;2.652;2022-09-28T07:14:47;5.40;;;0.90;;
68449;SDS011;55434;39.570;2.652;2022-09-28T07:17:14;5.88;;;1.00;;
68449;SDS011;55434;39.570;2.652;2022-09-28T07:19:41;7.75;;;1.02;;
68449;SDS011;55434;39.570;2.652;2022-09-28T07:22:07;7.63;;;1.00;;
68449;SDS011;55434;39.570;2.652;2022-09-28T07:24:33;9.18;;;1.05;;
68449;SDS011;55434;39.570;2.652;2022-09-28T07:26:58;9.50;;;1.20;;
68449;SDS011;55434;39.570;2.652;2022-09-28T07:29:24;10.98;;;1.30;;
68449;SDS011;55434;39.570;2.652;2022-09-28T07:31:52;12.75;;;1.95;;
68449;SDS011;55434;39.570;2.652;2022-09-28T07:34:18;10.30;;;1.23;;
68449;SDS011;55434;39.570;2.652;2022-09-28T07:36:47;10.38;;;1.65;;
68449;SDS011;55434;39.570;2.652;2022-09-28T07:39:16;9.80;;;1.05;;
68449;SDS011;55434;39.570;2.652;2022-09-28T07:41:41;10.17;;;0.90;;
68449;SDS011;55434;39.570;2.652;2022-09-28T07:44:08;8.45;;;0.75;;
68449;SDS011;55434;39.570;2.652;2022-09-28T07:46:34;6.55;;;1.00;;
68449;SDS011;55434;39.570;2.652;2022-09-28T07:49:01;8.20;;;1.10;;
68449;SDS011;55434;39.570;2.652;2022-09-28T07:51:29;6.90;;;0.70;;
68449;SDS011;55434;39.570;2.652;2022-09-28T07:53:55;7.88;;;0.95;;
68449;SDS011;55434;39.570;2.652;2022-09-28T07:56:21;8.45;;;1.02;;
68449;SDS011;55434;39.570;2.652;2022-09-28T07:58:47;4.32;;;0.80;;
68449;SDS011;55434;39.570;2.652;2022-09-28T08:01:16;7.87;;;1.20;;
68449;SDS011;55434;39.570;2.652;2022-09-28T08:03:52;8.65;;;1.10;;
68449;SDS011;55434;39.570;2.652;2022-09-28T08:06:22;11.57;;;1.20;;
68449;SDS011;55434;39.570;2.652;2022-09-28T08:08:48;6.38;;;0.90;;
68449;SDS011;55434;39.570;2.652;2022-09-28T08:11:17;10.83;;;1.13;;
68449;SDS011;55434;39.570;2.652;2022-09-28T08:13:46;9.93;;;1.13;;
68449;SDS011;55434;39.570;2.652;2022-09-28T08:16:12;8.27;;;1.02;;
68449;SDS011;55434;39.570;2.652;2022-09-28T08:18:49;8.27;;;0.70;;
68449;SDS011;55434;39.570;2.652;2022-09-28T08:21:15;3.53;;;0.70;;
68449;SDS011;55434;39.570;2.652;2022-09-28T08:23:59;8.13;;;0.83;;
68449;SDS011;55434;39.570;2.652;2022-09-28T08:26:25;10.70;;;1.10;;
68449;SDS011;55434;39.570;2.652;2022-09-28T08:28:51;7.03;;;1.00;;
68449;SDS011;55434;39.570;2.652;2022-09-28T08:31:17;11.20;;;1.20;;
68449;SDS011;55434;39.570;2.652;2022-09-28T08:33:45;7.70;;;1.23;;
68449;SDS011;55434;39.570;2.652;2022-09-28T08:36:11;5.55;;;0.82;;
68449;SDS011;55434;39.570;2.652;2022-09-28T08:38:48;8.07;;;1.40;;
68449;SDS011;55434;39.570;2.652;2022-09-28T08:44:22;11.68;;;1.73;;
68449;SDS011;55434;39.570;2.652;2022-09-28T08:47:00;8.32;;;1.27;;
68449;SDS011;55434;39.570;2.652;2022-09-28T08:49:33;7.57;;;1.35;;
68449;SDS011;55434;39.570;2.652;2022-09-28T08:52:22;7.00;;;1.20;;
68449;SDS011;55434;39.570;2.652;2022-09-28T08:55:03;8.13;;;1.13;;
68449;SDS011;55434;39.570;2.652;2022-09-28T09:00:20;7.32;;;1.45;;
68449;SDS011;55434;39.570;2.652;2022-09-28T09:02:53;6.10;;;1.13;;
68449;SDS011;55434;39.570;2.652;2022-09-28T09:05:21;6.43;;;0.90;;
68449;SDS011;55434;39.570;2.652;2022-09-28T09:10:44;8.63;;;1.40;;
68449;SDS011;55434;39.570;2.652;2022-09-28T09:19:07;5.78;;;1.10;;
68449;SDS011;55434;39.570;2.652;2022-09-28T09:21:45;6.43;;;1.20;;
68449;SDS011;55434;39.570;2.652;2022-09-28T09:24:25;8.98;;;1.05;;
68449;SDS011;55434;39.570;2.652;2022-09-28T09:30:04;7.50;;;1.10;;
68449;SDS011;55434;39.570;2.652;2022-09-28T09:38:23;7.95;;;1.20;;
68449;SDS011;55434;39.570;2.652;2022-09-28T09:44:27;6.18;;;1.67;;
68449;SDS011;55434;39.570;2.652;2022-09-28T09:47:16;7.28;;;0.98;;
68449;SDS011;55434;39.570;2.652;2022-09-28T09:50:02;5.97;;;0.97;;
68449;SDS011;55434;39.570;2.652;2022-09-28T09:52:48;8.65;;;1.33;;
68449;SDS011;55434;39.570;2.652;2022-09-28T09:55:33;5.82;;;1.20;;
68449;SDS011;55434;39.570;2.652;2022-09-28T10:00:57;8.50;;;1.10;;
68449;SDS011;55434;39.570;2.652;2022-09-28T10:03:38;5.27;;;1.00;;
68449;SDS011;55434;39.570;2.652;2022-09-28T10:06:08;5.60;;;0.60;;
68449;SDS011;55434;39.570;2.652;2022-09-28T10:08:38;7.20;;;1.20;;
68449;SDS011;55434;39.570;2.652;2022-09-28T10:11:18;5.10;;;1.10;;
68449;SDS011;55434;39.570;2.652;2022-09-28T10:13:50;6.85;;;1.70;;
68449;SDS011;55434;39.570;2.652;2022-09-28T10:16:16;6.77;;;1.33;;
68449;SDS011;55434;39.570;2.652;2022-09-28T10:18:42;3.67;;;1.17;;
68449;SDS011;55434;39.570;2.652;2022-09-28T10:21:12;6.68;;;1.23;;
68449;SDS011;55434;39.570;2.652;2022-09-28T10:23:39;8.63;;;1.08;;
68449;SDS011;55434;39.570;2.652;2022-09-28T10:26:13;8.30;;;1.30;;
68449;SDS011;55434;39.570;2.652;2022-09-28T10:28:53;6.00;;;1.47;;
68449;SDS011;55434;39.570;2.652;2022-09-28T10:31:34;7.40;;;1.00;;
68449;SDS011;55434;39.570;2.652;2022-09-28T10:34:00;5.43;;;1.10;;
68449;SDS011;55434;39.570;2.652;2022-09-28T10:36:26;7.18;;;1.30;;
68449;SDS011;55434;39.570;2.652;2022-09-28T10:38:52;4.85;;;1.65;;
68449;SDS011;55434;39.570;2.652;2022-09-28T10:41:20;7.55;;;3.15;;
68449;SDS011;55434;39.570;2.652;2022-09-28T10:43:56;5.03;;;1.42;;
68449;SDS011;55434;39.570;2.652;2022-09-28T10:46:33;9.75;;;1.30;;
68449;SDS011;55434;39.570;2.652;2022-09-28T10:49:01;6.45;;;1.13;;
68449;SDS011;55434;39.570;2.652;2022-09-28T10:54:20;5.93;;;1.33;;
68449;SDS011;55434;39.570;2.652;2022-09-28T10:56:49;3.42;;;1.02;;
68449;SDS011;55434;39.570;2.652;2022-09-28T11:01:55;4.93;;;1.52;;
68449;SDS011;55434;39.570;2.652;2022-09-28T11:04:25;7.13;;;1.50;;
68449;SDS011;55434;39.570;2.652;2022-09-28T11:06:53;5.37;;;1.67;;
68449;SDS011;55434;39.570;2.652;2022-09-28T11:09:29;5.95;;;1.20;;
68449;SDS011;55434;39.570;2.652;2022-09-28T11:11:57;8.18;;;2.03;;
68449;SDS011;55434;39.570;2.652;2022-09-28T11:17:15;5.32;;;2.08;;
68449;SDS011;55434;39.570;2.652;2022-09-28T11:19:58;8.25;;;2.25;;
68449;SDS011;55434;39.570;2.652;2022-09-28T11:22:26;6.53;;;2.72;;
68449;SDS011;55434;39.570;2.652;2022-09-28T11:25:38;5.47;;;2.22;;
68449;SDS011;55434;39.570;2.652;2022-09-28T11:32:48;6.65;;;2.60;;
68449;SDS011;55434;39.570;2.652;2022-09-28T11:35:27;7.43;;;2.28;;
68449;SDS011;55434;39.570;2.652;2022-09-28T11:38:39;6.45;;;2.70;;
68449;SDS011;55434;39.570;2.652;2022-09-28T11:49:30;6.82;;;3.58;;
68449;SDS011;55434;39.570;2.652;2022-09-28T11:52:01;6.05;;;2.53;;
68449;SDS011;55434;39.570;2.652;2022-09-28T11:54:46;7.95;;;2.55;;
68449;SDS011;55434;39.570;2.652;2022-09-28T11:57:26;5.15;;;2.20;;
68449;SDS011;55434;39.570;2.652;2022-09-28T11:59:59;9.75;;;3.20;;
68449;SDS011;55434;39.570;2.652;2022-09-28T12:02:33;5.43;;;2.20;;
68449;SDS011;55434;39.570;2.652;2022-09-28T12:05:11;5.55;;;2.33;;
68449;SDS011;55434;39.570;2.652;2022-09-28T12:07:46;3.90;;;1.65;;
68449;SDS011;55434;39.570;2.652;2022-09-28T12:10:26;5.60;;;2.30;;
68449;SDS011;55434;39.570;2.652;2022-09-28T12:13:13;6.40;;;2.15;;
68449;SDS011;55434;39.570;2.652;2022-09-28T12:15:53;3.50;;;1.60;;
68449;SDS011;55434;39.570;2.652;2022-09-28T12:18:25;4.45;;;2.00;;
68449;SDS011;55434;39.570;2.652;2022-09-28T12:23:53;5.88;;;2.63;;
68449;SDS011;55434;39.570;2.652;2022-09-28T12:26:32;4.90;;;2.25;;
68449;SDS011;55434;39.570;2.652;2022-09-28T12:29:10;4.55;;;2.20;;
68449;SDS011;55434;39.570;2.652;2022-09-28T12:34:29;5.63;;;1.70;;
68449;SDS011;55434;39.570;2.652;2022-09-28T12:40:21;5.40;;;2.03;;
68449;SDS011;55434;39.570;2.652;2022-09-28T13:09:37;4.85;;;2.15;;
68449;SDS011;55434;39.570;2.652;2022-09-28T13:16:55;5.05;;;1.70;;
68449;SDS011;55434;39.570;2.652;2022-09-28T13:25:24;5.93;;;1.70;;
68449;SDS011;55434;39.570;2.652;2022-09-28T13:28:03;5.07;;;1.63;;
68449;SDS011;55434;39.570;2.652;2022-09-28T13:30:34;5.72;;;2.55;;
68449;SDS011;55434;39.570;2.652;2022-09-28T13:33:03;4.47;;;1.55;;
68449;SDS011;55434;39.570;2.652;2022-09-28T13:35:31;4.95;;;1.50;;
68449;SDS011;55434;39.570;2.652;2022-09-28T13:46:33;3.85;;;1.27;;
68449;SDS011;55434;39.570;2.652;2022-09-28T13:55:13;5.40;;;1.67;;
68449;SDS011;55434;39.570;2.652;2022-09-28T13:57:59;3.33;;;1.10;;
68449;SDS011;55434;39.570;2.652;2022-09-28T14:11:39;4.20;;;1.30;;
68449;SDS011;55434;39.570;2.652;2022-09-28T14:16:38;4.03;;;0.90;;
68449;SDS011;55434;39.570;2.652;2022-09-28T14:30:05;3.42;;;0.70;;
68449;SDS011;55434;39.570;2.652;2022-09-28T14:32:56;2.97;;;0.80;;
68449;SDS011;55434;39.570;2.652;2022-09-28T14:35:33;4.53;;;1.00;;
68449;SDS011;55434;39.570;2.652;2022-09-28T14:38:14;3.47;;;1.13;;
68449;SDS011;55434;39.570;2.652;2022-09-28T14:41:04;3.67;;;0.90;;
68449;SDS011;55434;39.570;2.652;2022-09-28T14:43:35;5.10;;;1.15;;
68449;SDS011;55434;39.570;2.652;2022-09-28T14:56:39;3.50;;;0.93;;
68449;SDS011;55434;39.570;2.652;2022-09-28T14:59:31;6.22;;;1.50;;
68449;SDS011;55434;39.570;2.652;2022-09-28T15:02:12;3.38;;;0.90;;
68449;SDS011;55434;39.570;2.652;2022-09-28T15:04:49;3.17;;;0.80;;
68449;SDS011;55434;39.570;2.652;2022-09-28T15:07:24;4.15;;;0.90;;
68449;SDS011;55434;39.570;2.652;2022-09-28T15:09:59;4.40;;;1.00;;
68449;SDS011;55434;39.570;2.652;2022-09-28T15:12:32;3.88;;;0.93;;
68449;SDS011;55434;39.570;2.652;2022-09-28T15:14:59;5.67;;;1.07;;
68449;SDS011;55434;39.570;2.652;2022-09-28T15:22:26;4.38;;;0.90;;
68449;SDS011;55434;39.570;2.652;2022-09-28T15:24:59;5.18;;;0.90;;
68449;SDS011;55434;39.570;2.652;2022-09-28T15:27:33;3.67;;;0.77;;
68449;SDS011;55434;39.570;2.652;2022-09-28T15:32:53;5.03;;;1.17;;
68449;SDS011;55434;39.570;2.652;2022-09-28T15:37:48;3.45;;;1.00;;
68449;SDS011;55434;39.570;2.652;2022-09-28T15:40:17;2.77;;;1.10;;
68449;SDS011;55434;39.570;2.652;2022-09-28T15:42:49;3.90;;;1.10;;
68449;SDS011;55434;39.570;2.652;2022-09-28T15:45:25;3.42;;;1.23;;
68449;SDS011;55434;39.570;2.652;2022-09-28T15:48:13;7.35;;;2.42;;
68449;SDS011;55434;39.570;2.652;2022-09-28T15:50:53;4.22;;;1.30;;
68449;SDS011;55434;39.570;2.652;2022-09-28T15:53:39;4.20;;;1.70;;
68449;SDS011;55434;39.570;2.652;2022-09-28T15:56:15;3.70;;;1.30;;
68449;SDS011;55434;39.570;2.652;2022-09-28T15:58:41;3.97;;;1.20;;
68449;SDS011;55434;39.570;2.652;2022-09-28T16:04:00;5.28;;;1.20;;
68449;SDS011;55434;39.570;2.652;2022-09-28T16:09:56;5.45;;;1.20;;
68449;SDS011;55434;39.570;2.652;2022-09-28T16:12:48;3.97;;;1.17;;
68449;SDS011;55434;39.570;2.652;2022-09-28T16:15:29;3.53;;;0.80;;
68449;SDS011;55434;39.570;2.652;2022-09-28T16:17:59;4.70;;;1.38;;
68449;SDS011;55434;39.570;2.652;2022-09-28T16:20:28;5.03;;;1.17;;
68449;SDS011;55434;39.570;2.652;2022-09-28T16:23:00;3.88;;;0.98;;
68449;SDS011;55434;39.570;2.652;2022-09-28T16:26:06;6.03;;;1.33;;
68449;SDS011;55434;39.570;2.652;2022-09-28T16:28:52;3.42;;;0.90;;
68449;SDS011;55434;39.570;2.652;2022-09-28T16:33:49;7.20;;;1.88;;
68449;SDS011;55434;39.570;2.652;2022-09-28T16:36:20;5.00;;;1.20;;
68449;SDS011;55434;39.570;2.652;2022-09-28T16:38:47;3.73;;;1.10;;
68449;SDS011;55434;39.570;2.652;2022-09-28T16:41:14;3.72;;;1.10;;
68449;SDS011;55434;39.570;2.652;2022-09-28T16:43:43;3.00;;;0.77;;
68449;SDS011;55434;39.570;2.652;2022-09-28T16:46:11;4.88;;;1.58;;
68449;SDS011;55434;39.570;2.652;2022-09-28T16:48:43;2.90;;;0.70;;
68449;SDS011;55434;39.570;2.652;2022-09-28T16:51:15;6.67;;;1.50;;
68449;SDS011;55434;39.570;2.652;2022-09-28T16:53:44;5.45;;;1.45;;
68449;SDS011;55434;39.570;2.652;2022-09-28T16:56:29;4.75;;;1.08;;
68449;SDS011;55434;39.570;2.652;2022-09-28T16:58:57;5.88;;;0.95;;
68449;SDS011;55434;39.570;2.652;2022-09-28T17:01:22;4.67;;;1.10;;
68449;SDS011;55434;39.570;2.652;2022-09-28T17:03:49;6.25;;;1.42;;
68449;SDS011;55434;39.570;2.652;2022-09-28T17:06:19;7.13;;;1.50;;
68449;SDS011;55434;39.570;2.652;2022-09-28T17:08:49;5.90;;;1.80;;
68449;SDS011;55434;39.570;2.652;2022-09-28T17:11:15;5.33;;;1.00;;
68449;SDS011;55434;39.570;2.652;2022-09-28T17:13:42;4.20;;;1.02;;
68449;SDS011;55434;39.570;2.652;2022-09-28T17:16:16;4.70;;;1.40;;
68449;SDS011;55434;39.570;2.652;2022-09-28T17:18:45;4.30;;;1.20;;
68449;SDS011;55434;39.570;2.652;2022-09-28T17:21:16;4.85;;;1.35;;
68449;SDS011;55434;39.570;2.652;2022-09-28T17:23:44;6.10;;;1.10;;
68449;SDS011;55434;39.570;2.652;2022-09-28T17:26:32;4.97;;;1.15;;
68449;SDS011;55434;39.570;2.652;2022-09-28T17:28:59;4.82;;;1.30;;
68449;SDS011;55434;39.570;2.652;2022-09-28T17:31:26;4.10;;;1.10;;
68449;SDS011;55434;39.570;2.652;2022-09-28T17:33:54;6.75;;;1.42;;
68449;SDS011;55434;39.570;2.652;2022-09-28T17:36:21;6.60;;;1.10;;
68449;SDS011;55434;39.570;2.652;2022-09-28T17:38:47;4.97;;;1.25;;
68449;SDS011;55434;39.570;2.652;2022-09-28T17:41:14;5.00;;;1.05;;
68449;SDS011;55434;39.570;2.652;2022-09-28T17:43:41;4.67;;;0.83;;
68449;SDS011;55434;39.570;2.652;2022-09-28T17:48:57;3.20;;;0.73;;
68449;SDS011;55434;39.570;2.652;2022-09-28T17:51:27;4.78;;;1.08;;
68449;SDS011;55434;39.570;2.652;2022-09-28T17:53:55;4.90;;;1.00;;
68449;SDS011;55434;39.570;2.652;2022-09-28T17:56:22;5.73;;;1.33;;
68449;SDS011;55434;39.570;2.652;2022-09-28T17:58:49;6.10;;;1.80;;
68449;SDS011;55434;39.570;2.652;2022-09-28T18:01:16;5.28;;;1.35;;
68449;SDS011;55434;39.570;2.652;2022-09-28T18:03:42;8.00;;;1.57;;
68449;SDS011;55434;39.570;2.652;2022-09-28T18:06:13;5.53;;;1.57;;
68449;SDS011;55434;39.570;2.652;2022-09-28T18:08:41;5.03;;;1.75;;
68449;SDS011;55434;39.570;2.652;2022-09-28T18:11:08;5.63;;;1.52;;
68449;SDS011;55434;39.570;2.652;2022-09-28T18:13:35;7.60;;;1.10;;
68449;SDS011;55434;39.570;2.652;2022-09-28T18:16:00;7.47;;;1.50;;
68449;SDS011;55434;39.570;2.652;2022-09-28T18:18:27;7.70;;;1.63;;
68449;SDS011;55434;39.570;2.652;2022-09-28T18:20:53;4.65;;;1.40;;
68449;SDS011;55434;39.570;2.652;2022-09-28T18:23:28;6.63;;;1.40;;
68449;SDS011;55434;39.570;2.652;2022-09-28T18:25:59;6.97;;;2.00;;
68449;SDS011;55434;39.570;2.652;2022-09-28T18:28:25;5.93;;;1.50;;
68449;SDS011;55434;39.570;2.652;2022-09-28T18:30:53;6.23;;;1.33;;
68449;SDS011;55434;39.570;2.652;2022-09-28T18:33:19;6.90;;;1.35;;
68449;SDS011;55434;39.570;2.652;2022-09-28T18:35:51;5.93;;;1.10;;
68449;SDS011;55434;39.570;2.652;2022-09-28T18:38:18;3.65;;;0.70;;
68449;SDS011;55434;39.570;2.652;2022-09-28T18:40:46;5.82;;;1.60;;
68449;SDS011;55434;39.570;2.652;2022-09-28T18:43:12;6.97;;;1.53;;
68449;SDS011;55434;39.570;2.652;2022-09-28T18:45:38;4.90;;;1.17;;
68449;SDS011;55434;39.570;2.652;2022-09-28T18:48:04;5.65;;;1.10;;
68449;SDS011;55434;39.570;2.652;2022-09-28T18:50:30;4.37;;;0.90;;